sensor_id;sensor_type;location;lat;lon;timestamp;P1;durP1;ratioP1;P2;durP2;ratioP2
71734;SDS011;59577;52.122;5.406;2024-02-21T00:01:16;10.63;;;1.95;;
71734;SDS011;59577;52.122;5.406;2024-02-21T00:03:43;10.32;;;2.47;;
71734;SDS011;59577;52.122;5.406;2024-02-21T00:06:10;16.57;;;2.17;;
71734;SDS011;59577;52.122;5.406;2024-02-21T00:08:37;7.15;;;1.58;;
71734;SDS011;59577;52.122;5.406;2024-02-21T00:11:04;8.45;;;1.98;;
71734;SDS011;59577;52.122;5.406;2024-02-21T00:13:30;11.38;;;1.80;;
71734;SDS011;59577;52.122;5.406;2024-02-21T00:15:57;6.82;;;1.50;;
71734;SDS011;59577;52.122;5.406;2024-02-21T00:18:23;4.17;;;1.70;;
71734;SDS011;59577;52.122;5.406;2024-02-21T00:20:55;3.88;;;1.70;;
71734;SDS011;59577;52.122;5.406;2024-02-21T00:23:22;6.75;;;1.67;;
71734;SDS011;59577;52.122;5.406;2024-02-21T00:25:49;11.52;;;1.55;;
71734;SDS011;59577;52.122;5.406;2024-02-21T00:28:16;6.57;;;1.40;;
71734;SDS011;59577;52.122;5.406;2024-02-21T00:30:43;6.63;;;1.20;;
71734;SDS011;59577;52.122;5.406;2024-02-21T00:33:09;6.10;;;1.48;;
71734;SDS011;59577;52.122;5.406;2024-02-21T00:35:36;8.43;;;1.70;;
71734;SDS011;59577;52.122;5.406;2024-02-21T00:38:02;8.73;;;1.75;;
71734;SDS011;59577;52.122;5.406;2024-02-21T00:40:29;8.15;;;1.05;;
71734;SDS011;59577;52.122;5.406;2024-02-21T00:42:56;6.00;;;1.87;;
71734;SDS011;59577;52.122;5.406;2024-02-21T00:45:23;7.38;;;1.27;;
71734;SDS011;59577;52.122;5.406;2024-02-21T00:47:49;9.15;;;1.50;;
71734;SDS011;59577;52.122;5.406;2024-02-21T00:50:16;11.68;;;1.63;;
71734;SDS011;59577;52.122;5.406;2024-02-21T00:52:43;8.68;;;1.67;;
71734;SDS011;59577;52.122;5.406;2024-02-21T00:55:10;7.23;;;1.37;;
71734;SDS011;59577;52.122;5.406;2024-02-21T00:57:37;9.90;;;1.77;;
71734;SDS011;59577;52.122;5.406;2024-02-21T01:00:04;5.55;;;1.50;;
71734;SDS011;59577;52.122;5.406;2024-02-21T01:02:31;4.93;;;1.80;;
71734;SDS011;59577;52.122;5.406;2024-02-21T01:04:58;7.10;;;1.75;;
71734;SDS011;59577;52.122;5.406;2024-02-21T01:07:24;9.43;;;1.43;;
71734;SDS011;59577;52.122;5.406;2024-02-21T01:09:51;11.88;;;2.22;;
71734;SDS011;59577;52.122;5.406;2024-02-21T01:12:18;7.25;;;1.63;;
71734;SDS011;59577;52.122;5.406;2024-02-21T01:14:45;8.85;;;1.50;;
71734;SDS011;59577;52.122;5.406;2024-02-21T01:17:15;4.97;;;1.52;;
71734;SDS011;59577;52.122;5.406;2024-02-21T01:19:42;8.70;;;1.57;;
71734;SDS011;59577;52.122;5.406;2024-02-21T01:22:09;10.43;;;1.92;;
71734;SDS011;59577;52.122;5.406;2024-02-21T01:24:36;9.27;;;1.83;;
71734;SDS011;59577;52.122;5.406;2024-02-21T01:27:02;7.80;;;1.80;;
71734;SDS011;59577;52.122;5.406;2024-02-21T01:29:29;7.10;;;1.70;;
71734;SDS011;59577;52.122;5.406;2024-02-21T01:31:55;7.90;;;2.10;;
71734;SDS011;59577;52.122;5.406;2024-02-21T01:34:22;7.75;;;1.77;;
71734;SDS011;59577;52.122;5.406;2024-02-21T01:36:49;8.13;;;1.88;;
71734;SDS011;59577;52.122;5.406;2024-02-21T01:39:15;6.63;;;2.05;;
71734;SDS011;59577;52.122;5.406;2024-02-21T01:41:42;7.90;;;1.90;;
71734;SDS011;59577;52.122;5.406;2024-02-21T01:44:08;8.07;;;2.47;;
71734;SDS011;59577;52.122;5.406;2024-02-21T01:46:35;9.15;;;2.55;;
71734;SDS011;59577;52.122;5.406;2024-02-21T01:49:01;7.72;;;2.60;;
71734;SDS011;59577;52.122;5.406;2024-02-21T01:51:28;9.15;;;2.30;;
71734;SDS011;59577;52.122;5.406;2024-02-21T01:53:55;8.27;;;1.92;;
71734;SDS011;59577;52.122;5.406;2024-02-21T01:56:23;10.67;;;2.20;;
71734;SDS011;59577;52.122;5.406;2024-02-21T01:58:51;8.90;;;2.67;;
71734;SDS011;59577;52.122;5.406;2024-02-21T02:01:18;9.00;;;2.30;;
71734;SDS011;59577;52.122;5.406;2024-02-21T02:03:47;6.82;;;2.35;;
71734;SDS011;59577;52.122;5.406;2024-02-21T02:06:15;5.93;;;2.20;;
71734;SDS011;59577;52.122;5.406;2024-02-21T02:08:41;11.87;;;2.20;;
71734;SDS011;59577;52.122;5.406;2024-02-21T02:11:09;8.70;;;3.28;;
71734;SDS011;59577;52.122;5.406;2024-02-21T02:13:36;7.38;;;2.38;;
71734;SDS011;59577;52.122;5.406;2024-02-21T02:16:03;6.68;;;2.33;;
71734;SDS011;59577;52.122;5.406;2024-02-21T02:18:30;12.25;;;2.88;;
71734;SDS011;59577;52.122;5.406;2024-02-21T02:20:57;6.70;;;2.20;;
71734;SDS011;59577;52.122;5.406;2024-02-21T02:25:50;8.23;;;2.30;;
71734;SDS011;59577;52.122;5.406;2024-02-21T02:28:20;10.88;;;1.98;;
71734;SDS011;59577;52.122;5.406;2024-02-21T02:30:48;10.13;;;2.40;;
71734;SDS011;59577;52.122;5.406;2024-02-21T02:33:15;9.70;;;2.70;;
71734;SDS011;59577;52.122;5.406;2024-02-21T02:35:44;7.07;;;2.30;;
71734;SDS011;59577;52.122;5.406;2024-02-21T02:38:11;7.88;;;3.38;;
71734;SDS011;59577;52.122;5.406;2024-02-21T02:40:38;7.28;;;2.42;;
71734;SDS011;59577;52.122;5.406;2024-02-21T02:43:05;4.63;;;2.50;;
71734;SDS011;59577;52.122;5.406;2024-02-21T02:45:32;15.07;;;2.60;;
71734;SDS011;59577;52.122;5.406;2024-02-21T02:47:59;6.32;;;2.35;;
71734;SDS011;59577;52.122;5.406;2024-02-21T02:50:26;11.13;;;2.85;;
71734;SDS011;59577;52.122;5.406;2024-02-21T02:52:54;7.50;;;2.38;;
71734;SDS011;59577;52.122;5.406;2024-02-21T02:55:21;8.05;;;2.50;;
71734;SDS011;59577;52.122;5.406;2024-02-21T02:57:48;7.60;;;2.30;;
71734;SDS011;59577;52.122;5.406;2024-02-21T03:00:15;8.10;;;2.50;;
71734;SDS011;59577;52.122;5.406;2024-02-21T03:02:42;13.15;;;2.40;;
71734;SDS011;59577;52.122;5.406;2024-02-21T03:05:17;6.97;;;2.25;;
71734;SDS011;59577;52.122;5.406;2024-02-21T03:07:45;7.95;;;2.35;;
71734;SDS011;59577;52.122;5.406;2024-02-21T03:10:13;8.33;;;2.23;;
71734;SDS011;59577;52.122;5.406;2024-02-21T03:12:40;5.57;;;1.80;;
71734;SDS011;59577;52.122;5.406;2024-02-21T03:15:07;5.68;;;2.15;;
71734;SDS011;59577;52.122;5.406;2024-02-21T03:17:34;8.70;;;2.50;;
71734;SDS011;59577;52.122;5.406;2024-02-21T03:20:04;7.55;;;1.90;;
71734;SDS011;59577;52.122;5.406;2024-02-21T03:22:32;6.70;;;2.37;;
71734;SDS011;59577;52.122;5.406;2024-02-21T03:25:01;7.13;;;2.20;;
71734;SDS011;59577;52.122;5.406;2024-02-21T03:27:28;8.48;;;2.70;;
71734;SDS011;59577;52.122;5.406;2024-02-21T03:29:54;4.80;;;2.25;;
71734;SDS011;59577;52.122;5.406;2024-02-21T03:32:21;7.43;;;2.55;;
71734;SDS011;59577;52.122;5.406;2024-02-21T03:34:47;11.20;;;3.27;;
71734;SDS011;59577;52.122;5.406;2024-02-21T03:37:14;7.88;;;2.40;;
71734;SDS011;59577;52.122;5.406;2024-02-21T03:39:41;9.30;;;2.90;;
71734;SDS011;59577;52.122;5.406;2024-02-21T03:42:07;8.70;;;2.95;;
71734;SDS011;59577;52.122;5.406;2024-02-21T03:44:34;9.48;;;3.20;;
71734;SDS011;59577;52.122;5.406;2024-02-21T03:47:00;11.23;;;2.93;;
71734;SDS011;59577;52.122;5.406;2024-02-21T03:49:27;9.98;;;3.13;;
71734;SDS011;59577;52.122;5.406;2024-02-21T03:51:53;7.15;;;2.83;;
71734;SDS011;59577;52.122;5.406;2024-02-21T03:54:20;6.40;;;2.28;;
71734;SDS011;59577;52.122;5.406;2024-02-21T03:56:47;6.10;;;2.45;;
71734;SDS011;59577;52.122;5.406;2024-02-21T03:59:15;9.43;;;2.33;;
71734;SDS011;59577;52.122;5.406;2024-02-21T04:01:42;6.20;;;2.53;;
71734;SDS011;59577;52.122;5.406;2024-02-21T04:04:09;6.47;;;2.95;;
71734;SDS011;59577;52.122;5.406;2024-02-21T04:06:36;6.60;;;2.60;;
71734;SDS011;59577;52.122;5.406;2024-02-21T04:09:02;5.60;;;2.55;;
71734;SDS011;59577;52.122;5.406;2024-02-21T04:11:29;5.67;;;2.03;;
71734;SDS011;59577;52.122;5.406;2024-02-21T04:13:56;7.88;;;2.63;;
71734;SDS011;59577;52.122;5.406;2024-02-21T04:16:23;11.05;;;2.92;;
71734;SDS011;59577;52.122;5.406;2024-02-21T04:18:49;6.28;;;2.72;;
71734;SDS011;59577;52.122;5.406;2024-02-21T04:21:16;6.57;;;2.33;;
71734;SDS011;59577;52.122;5.406;2024-02-21T04:23:43;7.67;;;2.50;;
71734;SDS011;59577;52.122;5.406;2024-02-21T04:26:10;7.53;;;2.88;;
71734;SDS011;59577;52.122;5.406;2024-02-21T04:28:36;12.07;;;2.85;;
71734;SDS011;59577;52.122;5.406;2024-02-21T04:31:03;7.25;;;2.58;;
71734;SDS011;59577;52.122;5.406;2024-02-21T04:33:29;4.43;;;2.67;;
71734;SDS011;59577;52.122;5.406;2024-02-21T04:35:56;10.90;;;3.30;;
71734;SDS011;59577;52.122;5.406;2024-02-21T04:38:24;9.30;;;3.20;;
71734;SDS011;59577;52.122;5.406;2024-02-21T04:40:51;6.15;;;2.63;;
71734;SDS011;59577;52.122;5.406;2024-02-21T04:43:18;6.88;;;2.80;;
71734;SDS011;59577;52.122;5.406;2024-02-21T04:45:45;6.22;;;2.50;;
71734;SDS011;59577;52.122;5.406;2024-02-21T04:48:11;5.23;;;2.67;;
71734;SDS011;59577;52.122;5.406;2024-02-21T04:50:38;5.68;;;3.03;;
71734;SDS011;59577;52.122;5.406;2024-02-21T04:53:04;5.30;;;3.00;;
71734;SDS011;59577;52.122;5.406;2024-02-21T04:55:31;7.53;;;2.90;;
71734;SDS011;59577;52.122;5.406;2024-02-21T04:57:57;9.65;;;3.30;;
71734;SDS011;59577;52.122;5.406;2024-02-21T05:00:24;5.70;;;3.30;;
71734;SDS011;59577;52.122;5.406;2024-02-21T05:02:51;7.53;;;3.30;;
71734;SDS011;59577;52.122;5.406;2024-02-21T05:05:17;8.55;;;2.72;;
71734;SDS011;59577;52.122;5.406;2024-02-21T05:07:44;8.05;;;3.05;;
71734;SDS011;59577;52.122;5.406;2024-02-21T05:10:11;6.70;;;2.72;;
71734;SDS011;59577;52.122;5.406;2024-02-21T05:12:38;8.00;;;3.30;;
71734;SDS011;59577;52.122;5.406;2024-02-21T05:15:05;7.45;;;3.58;;
71734;SDS011;59577;52.122;5.406;2024-02-21T05:17:32;8.50;;;3.50;;
71734;SDS011;59577;52.122;5.406;2024-02-21T05:19:58;7.00;;;2.85;;
71734;SDS011;59577;52.122;5.406;2024-02-21T05:22:25;6.05;;;3.35;;
71734;SDS011;59577;52.122;5.406;2024-02-21T05:24:52;7.93;;;3.43;;
71734;SDS011;59577;52.122;5.406;2024-02-21T05:27:19;7.85;;;2.80;;
71734;SDS011;59577;52.122;5.406;2024-02-21T05:29:45;6.80;;;2.90;;
71734;SDS011;59577;52.122;5.406;2024-02-21T05:32:12;11.05;;;3.20;;
71734;SDS011;59577;52.122;5.406;2024-02-21T05:34:39;6.50;;;3.80;;
71734;SDS011;59577;52.122;5.406;2024-02-21T05:37:06;6.00;;;3.40;;
71734;SDS011;59577;52.122;5.406;2024-02-21T05:39:32;7.85;;;3.65;;
71734;SDS011;59577;52.122;5.406;2024-02-21T05:41:59;5.55;;;3.03;;
71734;SDS011;59577;52.122;5.406;2024-02-21T05:44:25;6.20;;;3.50;;
71734;SDS011;59577;52.122;5.406;2024-02-21T05:46:53;8.52;;;3.28;;
71734;SDS011;59577;52.122;5.406;2024-02-21T05:49:20;6.47;;;3.07;;
71734;SDS011;59577;52.122;5.406;2024-02-21T05:51:47;7.07;;;2.97;;
71734;SDS011;59577;52.122;5.406;2024-02-21T05:54:13;9.63;;;3.25;;
71734;SDS011;59577;52.122;5.406;2024-02-21T05:56:43;8.43;;;3.50;;
71734;SDS011;59577;52.122;5.406;2024-02-21T05:59:10;9.43;;;3.17;;
71734;SDS011;59577;52.122;5.406;2024-02-21T06:01:37;7.13;;;3.53;;
71734;SDS011;59577;52.122;5.406;2024-02-21T06:04:03;8.10;;;4.20;;
71734;SDS011;59577;52.122;5.406;2024-02-21T06:06:31;7.13;;;3.97;;
71734;SDS011;59577;52.122;5.406;2024-02-21T06:08:57;12.20;;;4.40;;
71734;SDS011;59577;52.122;5.406;2024-02-21T06:11:25;11.55;;;3.50;;
71734;SDS011;59577;52.122;5.406;2024-02-21T06:13:51;9.17;;;3.93;;
71734;SDS011;59577;52.122;5.406;2024-02-21T06:16:18;12.80;;;3.92;;
71734;SDS011;59577;52.122;5.406;2024-02-21T06:18:44;5.05;;;3.85;;
71734;SDS011;59577;52.122;5.406;2024-02-21T06:21:11;10.63;;;4.63;;
71734;SDS011;59577;52.122;5.406;2024-02-21T06:23:38;11.27;;;4.88;;
71734;SDS011;59577;52.122;5.406;2024-02-21T06:26:05;7.20;;;4.33;;
71734;SDS011;59577;52.122;5.406;2024-02-21T06:28:31;7.65;;;4.72;;
71734;SDS011;59577;52.122;5.406;2024-02-21T06:30:58;7.55;;;4.32;;
71734;SDS011;59577;52.122;5.406;2024-02-21T06:33:24;11.15;;;5.13;;
71734;SDS011;59577;52.122;5.406;2024-02-21T06:35:51;10.25;;;5.95;;
71734;SDS011;59577;52.122;5.406;2024-02-21T06:38:19;13.90;;;5.80;;
71734;SDS011;59577;52.122;5.406;2024-02-21T06:40:46;14.20;;;5.68;;
71734;SDS011;59577;52.122;5.406;2024-02-21T06:43:17;10.88;;;6.03;;
71734;SDS011;59577;52.122;5.406;2024-02-21T06:45:45;14.23;;;6.07;;
71734;SDS011;59577;52.122;5.406;2024-02-21T06:48:13;16.63;;;5.85;;
71734;SDS011;59577;52.122;5.406;2024-02-21T06:50:40;11.27;;;5.70;;
71734;SDS011;59577;52.122;5.406;2024-02-21T06:53:07;13.35;;;7.15;;
71734;SDS011;59577;52.122;5.406;2024-02-21T06:55:33;11.02;;;5.60;;
71734;SDS011;59577;52.122;5.406;2024-02-21T06:58:00;12.38;;;6.13;;
71734;SDS011;59577;52.122;5.406;2024-02-21T07:00:31;18.63;;;6.25;;
71734;SDS011;59577;52.122;5.406;2024-02-21T07:02:57;17.40;;;6.93;;
71734;SDS011;59577;52.122;5.406;2024-02-21T07:05:24;18.80;;;7.18;;
71734;SDS011;59577;52.122;5.406;2024-02-21T07:07:50;15.73;;;6.93;;
71734;SDS011;59577;52.122;5.406;2024-02-21T07:10:17;13.32;;;6.95;;
71734;SDS011;59577;52.122;5.406;2024-02-21T07:12:44;13.18;;;6.93;;
71734;SDS011;59577;52.122;5.406;2024-02-21T07:15:10;21.73;;;7.97;;
71734;SDS011;59577;52.122;5.406;2024-02-21T07:17:37;21.13;;;6.93;;
71734;SDS011;59577;52.122;5.406;2024-02-21T07:20:04;16.60;;;8.00;;
71734;SDS011;59577;52.122;5.406;2024-02-21T07:22:31;19.67;;;7.63;;
71734;SDS011;59577;52.122;5.406;2024-02-21T07:24:57;13.13;;;6.32;;
71734;SDS011;59577;52.122;5.406;2024-02-21T07:27:24;13.13;;;6.60;;
71734;SDS011;59577;52.122;5.406;2024-02-21T07:29:54;15.90;;;6.43;;
71734;SDS011;59577;52.122;5.406;2024-02-21T07:32:20;14.90;;;5.78;;
71734;SDS011;59577;52.122;5.406;2024-02-21T07:34:47;15.80;;;5.95;;
71734;SDS011;59577;52.122;5.406;2024-02-21T07:37:13;13.65;;;6.20;;
71734;SDS011;59577;52.122;5.406;2024-02-21T07:39:40;19.50;;;6.37;;
71734;SDS011;59577;52.122;5.406;2024-02-21T07:42:07;17.02;;;5.97;;
71734;SDS011;59577;52.122;5.406;2024-02-21T07:44:33;13.00;;;5.22;;
71734;SDS011;59577;52.122;5.406;2024-02-21T07:47:01;10.93;;;5.22;;
71734;SDS011;59577;52.122;5.406;2024-02-21T07:49:27;15.13;;;5.68;;
71734;SDS011;59577;52.122;5.406;2024-02-21T07:51:54;11.77;;;5.10;;
71734;SDS011;59577;52.122;5.406;2024-02-21T07:54:21;12.07;;;5.55;;
71734;SDS011;59577;52.122;5.406;2024-02-21T07:56:47;14.45;;;5.07;;
71734;SDS011;59577;52.122;5.406;2024-02-21T07:59:14;12.88;;;5.63;;
71734;SDS011;59577;52.122;5.406;2024-02-21T08:01:40;12.27;;;5.05;;
71734;SDS011;59577;52.122;5.406;2024-02-21T08:04:07;18.77;;;5.57;;
71734;SDS011;59577;52.122;5.406;2024-02-21T08:06:34;15.18;;;5.00;;
71734;SDS011;59577;52.122;5.406;2024-02-21T08:09:00;14.40;;;5.25;;
71734;SDS011;59577;52.122;5.406;2024-02-21T08:11:27;10.95;;;5.10;;
71734;SDS011;59577;52.122;5.406;2024-02-21T08:13:54;12.60;;;4.95;;
71734;SDS011;59577;52.122;5.406;2024-02-21T08:16:20;15.80;;;5.70;;
71734;SDS011;59577;52.122;5.406;2024-02-21T08:18:47;8.90;;;5.25;;
71734;SDS011;59577;52.122;5.406;2024-02-21T08:21:14;13.13;;;5.18;;
71734;SDS011;59577;52.122;5.406;2024-02-21T08:23:40;15.07;;;6.38;;
71734;SDS011;59577;52.122;5.406;2024-02-21T08:26:07;11.50;;;5.10;;
71734;SDS011;59577;52.122;5.406;2024-02-21T08:28:33;12.67;;;5.23;;
71734;SDS011;59577;52.122;5.406;2024-02-21T08:31:00;12.32;;;6.00;;
71734;SDS011;59577;52.122;5.406;2024-02-21T08:33:27;15.98;;;5.90;;
71734;SDS011;59577;52.122;5.406;2024-02-21T08:35:53;9.98;;;6.22;;
71734;SDS011;59577;52.122;5.406;2024-02-21T08:38:20;22.15;;;7.10;;
71734;SDS011;59577;52.122;5.406;2024-02-21T08:40:47;11.10;;;5.67;;
71734;SDS011;59577;52.122;5.406;2024-02-21T08:43:13;15.13;;;6.10;;
71734;SDS011;59577;52.122;5.406;2024-02-21T08:45:40;17.30;;;6.05;;
71734;SDS011;59577;52.122;5.406;2024-02-21T08:48:06;11.65;;;6.00;;
71734;SDS011;59577;52.122;5.406;2024-02-21T08:50:34;13.73;;;5.93;;
71734;SDS011;59577;52.122;5.406;2024-02-21T08:53:03;13.27;;;6.50;;
71734;SDS011;59577;52.122;5.406;2024-02-21T08:55:29;13.52;;;5.55;;
71734;SDS011;59577;52.122;5.406;2024-02-21T08:57:56;16.38;;;5.97;;
71734;SDS011;59577;52.122;5.406;2024-02-21T09:00:23;18.88;;;6.38;;
71734;SDS011;59577;52.122;5.406;2024-02-21T09:02:54;12.68;;;6.20;;
71734;SDS011;59577;52.122;5.406;2024-02-21T09:05:22;10.63;;;4.93;;
71734;SDS011;59577;52.122;5.406;2024-02-21T09:07:50;11.15;;;5.53;;
71734;SDS011;59577;52.122;5.406;2024-02-21T09:10:17;15.80;;;5.47;;
71734;SDS011;59577;52.122;5.406;2024-02-21T09:12:44;17.40;;;5.35;;
71734;SDS011;59577;52.122;5.406;2024-02-21T09:15:10;9.57;;;4.30;;
71734;SDS011;59577;52.122;5.406;2024-02-21T09:17:37;10.37;;;4.30;;
71734;SDS011;59577;52.122;5.406;2024-02-21T09:20:04;10.52;;;5.65;;
71734;SDS011;59577;52.122;5.406;2024-02-21T09:22:31;17.38;;;5.50;;
71734;SDS011;59577;52.122;5.406;2024-02-21T09:25:01;7.95;;;4.93;;
71734;SDS011;59577;52.122;5.406;2024-02-21T09:27:29;12.02;;;4.40;;
71734;SDS011;59577;52.122;5.406;2024-02-21T09:29:56;9.87;;;4.53;;
71734;SDS011;59577;52.122;5.406;2024-02-21T09:32:22;9.85;;;4.13;;
71734;SDS011;59577;52.122;5.406;2024-02-21T09:34:49;12.05;;;4.55;;
71734;SDS011;59577;52.122;5.406;2024-02-21T09:37:16;9.90;;;4.43;;
71734;SDS011;59577;52.122;5.406;2024-02-21T09:39:43;11.45;;;4.32;;
71734;SDS011;59577;52.122;5.406;2024-02-21T09:42:11;13.67;;;3.77;;
71734;SDS011;59577;52.122;5.406;2024-02-21T09:44:38;11.65;;;4.57;;
71734;SDS011;59577;52.122;5.406;2024-02-21T09:50:19;8.55;;;3.65;;
71734;SDS011;59577;52.122;5.406;2024-02-21T09:52:48;10.18;;;4.00;;
71734;SDS011;59577;52.122;5.406;2024-02-21T09:55:16;10.73;;;4.70;;
71734;SDS011;59577;52.122;5.406;2024-02-21T09:57:44;11.23;;;4.18;;
71734;SDS011;59577;52.122;5.406;2024-02-21T10:00:11;7.60;;;3.70;;
71734;SDS011;59577;52.122;5.406;2024-02-21T10:02:39;9.23;;;4.07;;
71734;SDS011;59577;52.122;5.406;2024-02-21T10:05:06;6.95;;;3.80;;
71734;SDS011;59577;52.122;5.406;2024-02-21T10:07:34;7.77;;;3.97;;
71734;SDS011;59577;52.122;5.406;2024-02-21T10:10:04;8.57;;;3.58;;
71734;SDS011;59577;52.122;5.406;2024-02-21T10:12:31;14.90;;;3.83;;
71734;SDS011;59577;52.122;5.406;2024-02-21T10:15:04;8.80;;;3.88;;
71734;SDS011;59577;52.122;5.406;2024-02-21T10:17:32;5.90;;;3.50;;
71734;SDS011;59577;52.122;5.406;2024-02-21T10:20:08;8.97;;;3.47;;
71734;SDS011;59577;52.122;5.406;2024-02-21T10:22:37;6.45;;;3.50;;
71734;SDS011;59577;52.122;5.406;2024-02-21T10:25:06;8.77;;;2.78;;
71734;SDS011;59577;52.122;5.406;2024-02-21T10:27:33;6.30;;;3.10;;
71734;SDS011;59577;52.122;5.406;2024-02-21T10:30:00;6.72;;;3.15;;
71734;SDS011;59577;52.122;5.406;2024-02-21T10:32:27;11.40;;;3.23;;
71734;SDS011;59577;52.122;5.406;2024-02-21T10:35:04;6.90;;;3.17;;
71734;SDS011;59577;52.122;5.406;2024-02-21T10:37:31;6.55;;;3.00;;
71734;SDS011;59577;52.122;5.406;2024-02-21T10:39:58;6.20;;;2.88;;
71734;SDS011;59577;52.122;5.406;2024-02-21T10:42:26;5.93;;;2.95;;
71734;SDS011;59577;52.122;5.406;2024-02-21T10:45:01;4.87;;;3.03;;
71734;SDS011;59577;52.122;5.406;2024-02-21T10:47:30;5.10;;;2.45;;
71734;SDS011;59577;52.122;5.406;2024-02-21T10:50:01;5.20;;;2.72;;
71734;SDS011;59577;52.122;5.406;2024-02-21T10:58:24;3.60;;;2.10;;
71734;SDS011;59577;52.122;5.406;2024-02-21T11:00:52;6.70;;;3.33;;
71734;SDS011;59577;52.122;5.406;2024-02-21T11:03:19;4.28;;;2.70;;
71734;SDS011;59577;52.122;5.406;2024-02-21T11:05:46;2.83;;;2.25;;
71734;SDS011;59577;52.122;5.406;2024-02-21T11:08:13;5.03;;;2.80;;
71734;SDS011;59577;52.122;5.406;2024-02-21T11:10:40;3.03;;;2.70;;
71734;SDS011;59577;52.122;5.406;2024-02-21T11:13:12;6.13;;;2.60;;
71734;SDS011;59577;52.122;5.406;2024-02-21T11:15:40;4.07;;;2.92;;
71734;SDS011;59577;52.122;5.406;2024-02-21T11:18:06;3.78;;;2.95;;
71734;SDS011;59577;52.122;5.406;2024-02-21T11:20:34;5.45;;;3.08;;
71734;SDS011;59577;52.122;5.406;2024-02-21T11:23:01;6.43;;;3.30;;
71734;SDS011;59577;52.122;5.406;2024-02-21T11:25:29;6.30;;;3.50;;
71734;SDS011;59577;52.122;5.406;2024-02-21T11:28:01;11.43;;;3.55;;
71734;SDS011;59577;52.122;5.406;2024-02-21T11:30:31;4.38;;;2.58;;
71734;SDS011;59577;52.122;5.406;2024-02-21T11:32:59;6.57;;;3.05;;
71734;SDS011;59577;52.122;5.406;2024-02-21T11:35:30;4.13;;;3.20;;
71734;SDS011;59577;52.122;5.406;2024-02-21T11:38:11;6.40;;;3.22;;
71734;SDS011;59577;52.122;5.406;2024-02-21T11:40:44;6.05;;;3.38;;
71734;SDS011;59577;52.122;5.406;2024-02-21T11:43:11;4.18;;;3.13;;
71734;SDS011;59577;52.122;5.406;2024-02-21T11:45:38;6.60;;;3.25;;
71734;SDS011;59577;52.122;5.406;2024-02-21T11:48:06;5.33;;;3.17;;
71734;SDS011;59577;52.122;5.406;2024-02-21T11:50:36;5.35;;;3.45;;
71734;SDS011;59577;52.122;5.406;2024-02-21T11:53:05;6.03;;;3.70;;
71734;SDS011;59577;52.122;5.406;2024-02-21T11:55:32;7.25;;;4.28;;
71734;SDS011;59577;52.122;5.406;2024-02-21T11:57:58;5.00;;;3.67;;
71734;SDS011;59577;52.122;5.406;2024-02-21T12:00:25;6.90;;;3.63;;
71734;SDS011;59577;52.122;5.406;2024-02-21T12:02:52;7.40;;;3.75;;
71734;SDS011;59577;52.122;5.406;2024-02-21T12:05:18;5.60;;;3.67;;
71734;SDS011;59577;52.122;5.406;2024-02-21T12:07:46;6.50;;;3.70;;
71734;SDS011;59577;52.122;5.406;2024-02-21T12:10:13;10.23;;;3.58;;
71734;SDS011;59577;52.122;5.406;2024-02-21T12:12:40;5.37;;;3.43;;
71734;SDS011;59577;52.122;5.406;2024-02-21T12:15:07;5.95;;;3.67;;
71734;SDS011;59577;52.122;5.406;2024-02-21T12:17:35;5.60;;;3.38;;
71734;SDS011;59577;52.122;5.406;2024-02-21T12:20:02;4.78;;;3.38;;
71734;SDS011;59577;52.122;5.406;2024-02-21T12:22:36;5.22;;;2.83;;
71734;SDS011;59577;52.122;5.406;2024-02-21T12:25:03;8.73;;;3.47;;
71734;SDS011;59577;52.122;5.406;2024-02-21T12:27:30;6.80;;;2.95;;
71734;SDS011;59577;52.122;5.406;2024-02-21T12:29:57;6.00;;;3.15;;
71734;SDS011;59577;52.122;5.406;2024-02-21T12:32:23;7.50;;;3.30;;
71734;SDS011;59577;52.122;5.406;2024-02-21T12:34:50;7.50;;;3.03;;
71734;SDS011;59577;52.122;5.406;2024-02-21T12:37:21;4.97;;;2.90;;
71734;SDS011;59577;52.122;5.406;2024-02-21T12:39:48;5.38;;;3.00;;
71734;SDS011;59577;52.122;5.406;2024-02-21T12:42:15;4.55;;;3.15;;
71734;SDS011;59577;52.122;5.406;2024-02-21T12:44:41;8.18;;;2.88;;
71734;SDS011;59577;52.122;5.406;2024-02-21T12:47:09;4.47;;;2.70;;
71734;SDS011;59577;52.122;5.406;2024-02-21T12:49:36;7.33;;;3.00;;
71734;SDS011;59577;52.122;5.406;2024-02-21T12:52:04;7.45;;;2.92;;
71734;SDS011;59577;52.122;5.406;2024-02-21T12:54:31;6.30;;;2.70;;
71734;SDS011;59577;52.122;5.406;2024-02-21T12:56:57;6.25;;;3.25;;
71734;SDS011;59577;52.122;5.406;2024-02-21T12:59:24;5.40;;;2.85;;
71734;SDS011;59577;52.122;5.406;2024-02-21T13:01:52;4.13;;;2.27;;
71734;SDS011;59577;52.122;5.406;2024-02-21T13:04:19;5.60;;;2.55;;
71734;SDS011;59577;52.122;5.406;2024-02-21T13:06:46;4.93;;;2.42;;
71734;SDS011;59577;52.122;5.406;2024-02-21T13:09:12;8.30;;;2.85;;
71734;SDS011;59577;52.122;5.406;2024-02-21T13:11:40;7.30;;;2.63;;
71734;SDS011;59577;52.122;5.406;2024-02-21T13:14:07;5.53;;;2.47;;
71734;SDS011;59577;52.122;5.406;2024-02-21T13:16:34;5.30;;;2.30;;
71734;SDS011;59577;52.122;5.406;2024-02-21T13:19:06;7.65;;;2.30;;
71734;SDS011;59577;52.122;5.406;2024-02-21T13:21:35;8.35;;;2.38;;
71734;SDS011;59577;52.122;5.406;2024-02-21T13:24:01;3.47;;;1.90;;
71734;SDS011;59577;52.122;5.406;2024-02-21T13:26:29;9.93;;;2.40;;
71734;SDS011;59577;52.122;5.406;2024-02-21T13:28:55;5.57;;;2.60;;
71734;SDS011;59577;52.122;5.406;2024-02-21T13:31:22;6.13;;;2.03;;
71734;SDS011;59577;52.122;5.406;2024-02-21T13:33:49;6.57;;;2.22;;
71734;SDS011;59577;52.122;5.406;2024-02-21T13:36:15;4.53;;;2.05;;
71734;SDS011;59577;52.122;5.406;2024-02-21T13:38:42;4.97;;;2.40;;
71734;SDS011;59577;52.122;5.406;2024-02-21T13:41:08;5.05;;;1.80;;
71734;SDS011;59577;52.122;5.406;2024-02-21T13:43:35;7.70;;;2.20;;
71734;SDS011;59577;52.122;5.406;2024-02-21T13:46:02;4.05;;;2.30;;
71734;SDS011;59577;52.122;5.406;2024-02-21T13:48:31;5.90;;;1.90;;
71734;SDS011;59577;52.122;5.406;2024-02-21T13:50:59;3.17;;;1.80;;
71734;SDS011;59577;52.122;5.406;2024-02-21T13:53:28;6.30;;;1.85;;
71734;SDS011;59577;52.122;5.406;2024-02-21T13:55:55;5.68;;;2.55;;
71734;SDS011;59577;52.122;5.406;2024-02-21T13:58:21;9.57;;;2.17;;
71734;SDS011;59577;52.122;5.406;2024-02-21T14:00:48;5.78;;;2.05;;
71734;SDS011;59577;52.122;5.406;2024-02-21T14:03:15;7.73;;;1.80;;
71734;SDS011;59577;52.122;5.406;2024-02-21T14:05:42;5.05;;;1.80;;
71734;SDS011;59577;52.122;5.406;2024-02-21T14:08:09;2.55;;;1.77;;
71734;SDS011;59577;52.122;5.406;2024-02-21T14:10:35;5.53;;;1.98;;
71734;SDS011;59577;52.122;5.406;2024-02-21T14:13:03;4.05;;;1.60;;
71734;SDS011;59577;52.122;5.406;2024-02-21T14:15:30;5.87;;;1.53;;
71734;SDS011;59577;52.122;5.406;2024-02-21T14:17:56;6.32;;;2.00;;
71734;SDS011;59577;52.122;5.406;2024-02-21T14:20:23;3.67;;;1.98;;
71734;SDS011;59577;52.122;5.406;2024-02-21T14:22:49;5.72;;;1.50;;
71734;SDS011;59577;52.122;5.406;2024-02-21T14:25:17;3.97;;;1.63;;
71734;SDS011;59577;52.122;5.406;2024-02-21T14:27:43;6.53;;;1.73;;
71734;SDS011;59577;52.122;5.406;2024-02-21T14:30:10;5.68;;;1.50;;
71734;SDS011;59577;52.122;5.406;2024-02-21T14:32:37;5.22;;;1.48;;
71734;SDS011;59577;52.122;5.406;2024-02-21T14:35:04;4.68;;;1.40;;
71734;SDS011;59577;52.122;5.406;2024-02-21T14:37:32;4.50;;;1.42;;
71734;SDS011;59577;52.122;5.406;2024-02-21T14:39:59;4.63;;;2.00;;
71734;SDS011;59577;52.122;5.406;2024-02-21T14:42:27;5.30;;;1.60;;
71734;SDS011;59577;52.122;5.406;2024-02-21T14:44:53;8.18;;;2.05;;
71734;SDS011;59577;52.122;5.406;2024-02-21T14:47:33;4.13;;;1.60;;
71734;SDS011;59577;52.122;5.406;2024-02-21T14:50:01;4.57;;;1.75;;
71734;SDS011;59577;52.122;5.406;2024-02-21T14:52:28;6.80;;;1.73;;
71734;SDS011;59577;52.122;5.406;2024-02-21T14:54:56;7.97;;;1.60;;